createdAt,value
2018-01-29T00:00:48.605Z,69.40
2018-01-29T00:03:16.142Z,69.40
2018-01-29T00:05:44.514Z,69.50
2018-01-29T00:08:12.086Z,69.50
2018-01-29T00:10:39.622Z,69.40
2018-01-29T00:13:07.183Z,69.50
2018-01-29T00:15:34.766Z,69.40
2018-01-29T00:18:02.316Z,69.50
2018-01-29T00:20:29.834Z,69.60
2018-01-29T00:22:57.390Z,69.60
2018-01-29T00:25:24.927Z,69.80
2018-01-29T00:27:52.475Z,69.80
2018-01-29T00:30:20.095Z,69.90
2018-01-29T00:32:47.615Z,70.00
2018-01-29T00:35:15.124Z,69.90
2018-01-29T00:37:42.649Z,69.90
2018-01-29T00:40:10.252Z,69.90
2018-01-29T00:42:38.568Z,69.90
2018-01-29T00:45:06.846Z,69.80
2018-01-29T00:47:34.398Z,69.70
2018-01-29T00:50:01.938Z,69.60
2018-01-29T00:52:30.222Z,69.50
2018-01-29T00:54:58.624Z,69.60
2018-01-29T00:57:26.154Z,70.30
2018-01-29T00:59:53.678Z,69.60
2018-01-29T01:02:21.225Z,69.80
2018-01-29T01:04:48.766Z,69.90
2018-01-29T01:07:17.042Z,70.20
2018-01-29T01:09:44.634Z,70.20
2018-01-29T01:12:12.169Z,70.20
2018-01-29T01:14:39.687Z,70.00
2018-01-29T01:17:07.200Z,70.10
2018-01-29T01:19:35.517Z,70.00
2018-01-29T01:22:03.804Z,70.10
2018-01-29T01:24:32.085Z,70.10
2018-01-29T01:26:59.637Z,70.10
2018-01-29T01:29:27.139Z,70.50
2018-01-29T01:31:54.645Z,70.20
2018-01-29T01:34:22.255Z,69.90
2018-01-29T01:36:50.521Z,69.70
2018-01-29T01:39:18.031Z,69.70
2018-01-29T01:41:46.373Z,69.30
2018-01-29T01:44:13.877Z,69.30
2018-01-29T01:46:41.401Z,69.10
2018-01-29T01:49:09.692Z,68.50
2018-01-29T01:51:37.966Z,68.30
2018-01-29T01:54:05.487Z,68.40
2018-01-29T01:56:33.818Z,68.50
2018-01-29T01:59:01.363Z,68.50
2018-01-29T02:01:28.882Z,68.40
2018-01-29T02:03:56.433Z,68.30
2018-01-29T02:06:24.814Z,68.40
2018-01-29T02:08:53.050Z,68.40
2018-01-29T02:11:20.595Z,68.50
2018-01-29T02:13:48.122Z,68.80
2018-01-29T02:16:15.692Z,68.90
2018-01-29T02:18:43.252Z,69.10
2018-01-29T02:21:10.758Z,68.90
2018-01-29T02:23:38.270Z,68.90
2018-01-29T02:26:05.824Z,69.30
2018-01-29T02:28:33.331Z,68.70
2018-01-29T02:31:00.861Z,68.70
2018-01-29T02:33:28.424Z,69.10
2018-01-29T02:35:56.738Z,69.40
2018-01-29T02:38:24.301Z,69.40
2018-01-29T02:40:52.626Z,69.80
2018-01-29T02:43:20.168Z,69.70
2018-01-29T02:45:47.681Z,69.60
2018-01-29T02:48:15.999Z,70.10
2018-01-29T02:50:43.585Z,70.10
2018-01-29T02:53:11.113Z,70.20
2018-01-29T02:55:38.681Z,70.10
2018-01-29T02:58:06.213Z,70.30
2018-01-29T03:00:34.504Z,69.90
2018-01-29T03:03:02.034Z,69.90
2018-01-29T03:05:29.542Z,69.80
2018-01-29T03:07:57.071Z,69.80
2018-01-29T03:10:25.439Z,69.30
2018-01-29T03:12:53.007Z,69.20
2018-01-29T03:15:20.517Z,69.20
2018-01-29T03:17:48.082Z,68.90
2018-01-29T03:20:15.624Z,68.50
2018-01-29T03:22:43.172Z,68.40
2018-01-29T03:25:10.703Z,68.10
2018-01-29T03:27:38.260Z,67.80
2018-01-29T03:30:06.716Z,67.90
2018-01-29T03:35:53.389Z,67.80
2018-01-29T03:38:21.675Z,68.00
2018-01-29T03:40:49.209Z,68.00
2018-01-29T03:43:17.531Z,68.10
2018-01-29T03:45:45.054Z,68.80
2018-01-29T03:48:12.683Z,68.10
2018-01-29T03:50:40.189Z,68.00
2018-01-29T03:53:07.716Z,67.80
2018-01-29T03:55:36.041Z,67.70
2018-01-29T03:58:04.309Z,67.70
2018-01-29T04:00:31.934Z,67.70
2018-01-29T04:03:00.236Z,67.70
2018-01-29T04:05:27.801Z,67.70
2018-01-29T04:07:56.089Z,67.90
2018-01-29T04:10:25.147Z,67.80
2018-01-29T04:12:53.435Z,67.90
2018-01-29T04:15:21.025Z,68.00
2018-01-29T04:17:49.303Z,68.10
2018-01-29T04:20:16.945Z,68.00
2018-01-29T04:22:44.488Z,68.20
2018-01-29T04:25:12.800Z,68.40
2018-01-29T04:27:41.242Z,68.60
2018-01-29T04:30:08.771Z,68.50
2018-01-29T04:32:36.358Z,68.60
2018-01-29T04:35:03.978Z,68.60
2018-01-29T04:37:32.275Z,69.00
2018-01-29T04:40:15.157Z,69.40
2018-01-29T04:42:42.709Z,69.30
2018-01-29T04:45:11.011Z,69.80
2018-01-29T04:47:39.300Z,69.90
2018-01-29T04:50:06.829Z,69.80
2018-01-29T04:52:34.336Z,70.00
2018-01-29T04:55:01.857Z,70.00
2018-01-29T04:57:29.401Z,70.10
2018-01-29T04:59:56.974Z,70.30
2018-01-29T05:02:24.636Z,70.50
2018-01-29T05:04:52.935Z,70.60
2018-01-29T05:07:21.214Z,70.80
2018-01-29T05:09:48.761Z,70.70
2018-01-29T05:12:16.274Z,71.10
2018-01-29T05:14:43.791Z,71.30
2018-01-29T05:17:11.328Z,71.60
2018-01-29T05:19:38.843Z,71.90
2018-01-29T05:22:06.377Z,72.10
2018-01-29T05:24:33.924Z,71.90
2018-01-29T05:27:12.989Z,72.00
2018-01-29T05:29:40.513Z,72.00
2018-01-29T05:32:08.040Z,72.20
2018-01-29T05:34:35.610Z,72.30
2018-01-29T05:40:07.575Z,72.00
2018-01-29T05:42:35.962Z,72.40
2018-01-29T05:45:03.477Z,72.30
2018-01-29T05:47:31.769Z,71.70
2018-01-29T05:50:00.078Z,71.50
2018-01-29T05:52:28.367Z,71.80
2018-01-29T05:54:56.677Z,71.00
2018-01-29T05:57:24.982Z,70.90
2018-01-29T05:59:53.349Z,71.00
2018-01-29T06:02:20.879Z,71.00
2018-01-29T06:04:48.410Z,70.90
2018-01-29T06:07:15.981Z,70.70
2018-01-29T06:09:43.494Z,70.80
2018-01-29T06:12:11.011Z,70.80
2018-01-29T06:14:39.306Z,70.90
2018-01-29T06:17:06.855Z,70.80
2018-01-29T06:19:34.437Z,71.20
2018-01-29T06:22:01.988Z,71.40
2018-01-29T06:24:29.527Z,71.50
2018-01-29T06:26:57.181Z,71.80
2018-01-29T06:29:24.757Z,71.60
2018-01-29T06:31:52.321Z,71.70
2018-01-29T06:34:19.865Z,71.90
2018-01-29T06:36:47.370Z,71.80
2018-01-29T06:39:15.715Z,71.80
2018-01-29T06:41:43.436Z,71.90
2018-01-29T06:44:10.972Z,72.10
2018-01-29T06:46:38.698Z,72.10
2018-01-29T06:49:06.213Z,72.10
2018-01-29T06:51:33.737Z,72.00
2018-01-29T06:54:01.290Z,71.80
2018-01-29T06:56:28.832Z,71.80
2018-01-29T06:58:56.345Z,71.90
2018-01-29T07:01:23.945Z,71.90
2018-01-29T07:03:52.262Z,71.40
2018-01-29T07:06:19.814Z,71.60
2018-01-29T07:08:47.374Z,71.60
2018-01-29T07:11:14.937Z,71.40
2018-01-29T07:13:42.501Z,71.40
2018-01-29T07:16:10.054Z,71.30
2018-01-29T07:18:38.445Z,71.50
2018-01-29T07:21:05.969Z,71.50
2018-01-29T07:23:34.357Z,71.20
2018-01-29T07:26:02.823Z,70.80
2018-01-29T07:28:31.133Z,70.70
2018-01-29T07:30:58.796Z,70.80
2018-01-29T07:33:27.079Z,70.50
2018-01-29T07:35:54.627Z,70.50
2018-01-29T07:38:22.341Z,70.40
2018-01-29T07:40:50.618Z,70.00
2018-01-29T07:43:18.942Z,69.90
2018-01-29T07:45:46.483Z,69.80
2018-01-29T07:48:14.022Z,67.80
2018-01-29T07:50:41.570Z,65.10
2018-01-29T07:53:09.116Z,62.40
2018-01-29T07:55:36.720Z,59.60
2018-01-29T07:58:04.334Z,58.90
2018-01-29T08:00:31.896Z,58.50
2018-01-29T08:02:59.631Z,57.90
2018-01-29T08:05:27.230Z,56.50
2018-01-29T08:07:54.792Z,56.20
2018-01-29T08:10:23.130Z,56.20
2018-01-29T08:12:50.730Z,56.40
2018-01-29T08:15:18.274Z,56.30
2018-01-29T08:17:46.586Z,57.50
2018-01-29T08:20:14.247Z,57.50
2018-01-29T08:22:41.796Z,56.80
2018-01-29T08:25:10.087Z,55.60
2018-01-29T08:27:37.622Z,55.60
2018-01-29T08:30:05.174Z,54.50
2018-01-29T08:32:32.732Z,54.40
2018-01-29T08:35:00.337Z,53.90
2018-01-29T08:37:27.896Z,53.60
2018-01-29T08:39:55.708Z,53.10
2018-01-29T08:42:23.271Z,53.00
2018-01-29T08:44:50.789Z,52.80
2018-01-29T08:47:18.463Z,53.10
2018-01-29T08:49:46.021Z,53.40
2018-01-29T08:52:14.349Z,52.70
2018-01-29T08:54:41.881Z,52.70
2018-01-29T08:57:09.440Z,52.20
2018-01-29T08:59:36.969Z,51.80
2018-01-29T09:02:04.631Z,51.80
2018-01-29T09:04:32.197Z,51.40
2018-01-29T09:06:59.756Z,50.90
2018-01-29T09:09:28.056Z,49.90
2018-01-29T09:11:56.375Z,49.70
2018-01-29T09:14:24.134Z,49.70
2018-01-29T09:16:51.678Z,49.40
2018-01-29T09:19:19.362Z,49.20
2018-01-29T09:21:46.882Z,49.10
2018-01-29T09:24:14.443Z,49.20
2018-01-29T09:26:42.855Z,49.60
2018-01-29T09:29:10.465Z,49.60
2018-01-29T09:31:38.007Z,49.90
2018-01-29T09:34:06.520Z,49.60
2018-01-29T09:36:34.057Z,49.50
2018-01-29T09:39:02.416Z,48.90
2018-01-29T09:41:29.945Z,48.80
2018-01-29T09:43:58.256Z,48.10
2018-01-29T09:46:25.810Z,48.00
2018-01-29T09:48:53.349Z,47.90
2018-01-29T09:51:20.890Z,47.70
2018-01-29T09:53:48.802Z,46.70
2018-01-29T09:56:17.112Z,46.50
2018-01-29T09:58:45.693Z,46.40
2018-01-29T10:01:13.251Z,46.40
2018-01-29T10:03:40.767Z,46.80
2018-01-29T10:06:08.314Z,46.60
2018-01-29T10:08:35.863Z,47.00
2018-01-29T10:11:03.565Z,46.90
2018-01-29T10:13:31.140Z,46.80
2018-01-29T10:15:58.683Z,46.70
2018-01-29T10:18:26.271Z,46.70
2018-01-29T10:20:53.809Z,46.60
2018-01-29T10:23:22.116Z,45.50
2018-01-29T10:25:49.695Z,45.60
2018-01-29T10:28:17.232Z,45.70
2018-01-29T10:30:44.783Z,45.00
2018-01-29T10:33:12.308Z,44.60
2018-01-29T10:35:40.622Z,45.20
2018-01-29T10:38:08.164Z,45.20
2018-01-29T10:40:36.450Z,44.80
2018-01-29T10:43:04.897Z,44.70
2018-01-29T10:45:32.451Z,44.70
2018-01-29T10:48:00.008Z,44.80
2018-01-29T10:50:27.541Z,44.40
2018-01-29T10:52:55.072Z,44.50
2018-01-29T10:55:22.651Z,44.20
2018-01-29T10:57:50.233Z,43.70
2018-01-29T11:00:17.840Z,43.40
2018-01-29T11:02:45.374Z,43.00
2018-01-29T11:05:12.914Z,42.90
2018-01-29T11:07:40.460Z,42.60
2018-01-29T11:10:07.991Z,43.30
2018-01-29T11:12:36.287Z,43.80
2018-01-29T11:15:04.780Z,44.00
2018-01-29T11:17:33.228Z,44.20
2018-01-29T11:20:00.732Z,44.20
2018-01-29T11:22:28.328Z,44.10
2018-01-29T11:24:56.672Z,44.10
2018-01-29T11:27:24.306Z,44.00
2018-01-29T11:29:52.656Z,43.50
2018-01-29T11:32:21.285Z,43.50
2018-01-29T11:34:48.818Z,43.00
2018-01-29T11:37:16.472Z,42.50
2018-01-29T11:39:44.190Z,42.50
2018-01-29T11:42:11.772Z,43.20
2018-01-29T11:44:39.312Z,44.00
2018-01-29T11:47:07.631Z,45.70
2018-01-29T11:49:35.162Z,45.70
2018-01-29T11:52:02.946Z,46.40
2018-01-29T11:54:30.554Z,47.30
2018-01-29T11:56:58.085Z,47.90
2018-01-29T11:59:25.930Z,48.40
2018-01-29T12:01:53.473Z,49.10
2018-01-29T12:04:20.981Z,49.50
2018-01-29T12:06:48.624Z,49.80
2018-01-29T12:09:16.961Z,50.60
2018-01-29T12:11:44.611Z,50.60
2018-01-29T12:14:12.191Z,51.20
2018-01-29T12:16:39.732Z,51.10
2018-01-29T12:19:07.280Z,51.20
2018-01-29T12:21:35.557Z,51.70
2018-01-29T12:24:03.075Z,51.80
2018-01-29T12:26:31.401Z,52.10
2018-01-29T12:28:58.950Z,52.10
2018-01-29T12:31:26.470Z,52.70
2018-01-29T12:33:54.189Z,52.60
2018-01-29T12:36:21.711Z,52.70
2018-01-29T12:38:50.146Z,52.60
2018-01-29T12:41:17.733Z,52.50
2018-01-29T12:43:45.394Z,52.10
2018-01-29T12:46:12.945Z,51.90
2018-01-29T12:48:40.495Z,51.90
2018-01-29T12:51:08.853Z,51.70
2018-01-29T12:53:36.424Z,51.70
2018-01-29T12:56:04.166Z,52.00
2018-01-29T12:58:31.779Z,52.10
2018-01-29T13:01:00.188Z,51.60
2018-01-29T13:03:28.504Z,52.00
2018-01-29T13:05:56.118Z,52.00
2018-01-29T13:08:23.670Z,52.30
2018-01-29T13:10:51.237Z,52.40
2018-01-29T13:13:19.553Z,52.00
2018-01-29T13:15:47.124Z,52.00
2018-01-29T13:18:15.495Z,52.20
2018-01-29T13:20:43.065Z,52.20
2018-01-29T13:23:10.653Z,52.20
2018-01-29T13:25:38.181Z,52.10
2018-01-29T13:28:05.977Z,52.20
2018-01-29T13:30:34.265Z,52.30
2018-01-29T13:33:01.802Z,52.40
2018-01-29T13:35:29.379Z,52.30
2018-01-29T13:37:56.946Z,52.10
2018-01-29T13:40:25.259Z,52.00
2018-01-29T13:42:52.841Z,52.10
2018-01-29T13:45:21.184Z,52.30
2018-01-29T13:47:48.728Z,52.30
2018-01-29T13:50:17.021Z,52.40
2018-01-29T13:52:44.687Z,52.50
2018-01-29T13:55:12.250Z,52.50
2018-01-29T13:57:40.192Z,52.50
2018-01-29T14:00:07.873Z,52.60
2018-01-29T14:02:35.399Z,52.70
2018-01-29T14:05:02.947Z,52.70
2018-01-29T14:07:30.501Z,53.10
2018-01-29T14:09:58.009Z,53.10
2018-01-29T14:12:25.661Z,53.20
2018-01-29T14:14:53.217Z,53.20
2018-01-29T14:17:21.529Z,53.40
2018-01-29T14:19:49.075Z,53.50
2018-01-29T14:22:16.819Z,53.60
2018-01-29T14:24:44.438Z,54.10
2018-01-29T14:27:12.134Z,53.60
2018-01-29T14:29:39.672Z,53.90
2018-01-29T14:32:07.203Z,54.10
2018-01-29T14:34:34.790Z,54.20
2018-01-29T14:37:02.324Z,54.20
2018-01-29T14:39:30.780Z,54.50
2018-01-29T14:41:58.367Z,54.60
2018-01-29T14:44:26.042Z,54.60
2018-01-29T14:46:53.584Z,54.60
2018-01-29T14:49:21.905Z,54.90
2018-01-29T14:51:50.333Z,54.90
2018-01-29T14:54:18.045Z,54.90
2018-01-29T14:56:45.641Z,54.90
2018-01-29T14:59:13.170Z,54.90
2018-01-29T15:01:41.494Z,55.20
2018-01-29T15:04:09.042Z,55.20
2018-01-29T15:06:36.686Z,55.40
2018-01-29T15:09:04.234Z,55.40
2018-01-29T15:11:32.532Z,55.40
2018-01-29T15:14:00.861Z,55.50
2018-01-29T15:16:28.463Z,55.50
2018-01-29T15:18:55.999Z,55.60
2018-01-29T15:21:24.322Z,55.80
2018-01-29T15:23:51.972Z,55.80
2018-01-29T15:26:19.634Z,56.00
2018-01-29T15:28:47.168Z,56.10
2018-01-29T15:31:14.740Z,56.30
2018-01-29T15:33:42.426Z,56.40
2018-01-29T15:36:10.836Z,56.50
2018-01-29T15:38:39.129Z,56.60
2018-01-29T15:41:07.438Z,56.90
2018-01-29T15:43:35.758Z,56.90
2018-01-29T15:46:03.423Z,57.00
2018-01-29T15:48:31.125Z,56.90
2018-01-29T15:50:58.640Z,57.20
2018-01-29T15:53:26.285Z,57.10
2018-01-29T15:55:54.591Z,57.30
2018-01-29T15:58:22.948Z,57.40
2018-01-29T16:00:50.568Z,57.40
2018-01-29T16:03:18.807Z,57.70
2018-01-29T16:05:46.389Z,57.80
2018-01-29T16:08:14.008Z,58.10
2018-01-29T16:10:42.536Z,58.30
2018-01-29T16:13:10.075Z,58.30
2018-01-29T16:15:37.604Z,58.20
2018-01-29T16:18:05.159Z,58.40
2018-01-29T16:20:33.452Z,58.60
2018-01-29T16:23:00.984Z,58.60
2018-01-29T16:25:28.532Z,58.70
2018-01-29T16:27:56.859Z,58.80
2018-01-29T16:30:24.408Z,58.80
2018-01-29T16:32:52.069Z,58.90
2018-01-29T16:35:19.619Z,59.00
2018-01-29T16:37:47.255Z,59.20
2018-01-29T16:40:14.825Z,59.40
2018-01-29T16:42:42.349Z,59.50
2018-01-29T16:45:10.683Z,59.70
2018-01-29T16:47:38.203Z,59.70
2018-01-29T16:50:06.064Z,59.90
2018-01-29T16:52:33.606Z,59.90
2018-01-29T16:55:01.126Z,60.00
2018-01-29T16:57:29.425Z,60.40
2018-01-29T16:59:56.978Z,60.40
2018-01-29T17:02:24.570Z,60.60
2018-01-29T17:04:52.192Z,60.80
2018-01-29T17:07:20.491Z,61.30
2018-01-29T17:09:48.092Z,61.30
2018-01-29T17:12:15.719Z,61.40
2018-01-29T17:14:44.296Z,61.70
2018-01-29T17:17:11.822Z,61.70
2018-01-29T17:19:39.569Z,62.10
2018-01-29T17:22:07.869Z,62.40
2018-01-29T17:24:39.135Z,62.80
2018-01-29T17:27:08.064Z,62.80
2018-01-29T17:29:36.371Z,62.70
2018-01-29T17:32:04.102Z,62.80
2018-01-29T17:34:31.705Z,62.80
2018-01-29T17:36:59.260Z,62.80
2018-01-29T17:39:26.783Z,62.90
2018-01-29T17:41:54.453Z,63.00
2018-01-29T17:44:22.849Z,63.10
2018-01-29T17:46:50.594Z,63.10
2018-01-29T17:49:18.918Z,63.10
2018-01-29T17:51:46.479Z,63.20
2018-01-29T17:54:14.021Z,63.40
2018-01-29T17:56:41.619Z,63.40
2018-01-29T17:59:09.142Z,63.50
2018-01-29T18:01:36.705Z,63.40
2018-01-29T18:04:04.409Z,63.90
2018-01-29T18:06:32.044Z,64.10
2018-01-29T18:08:59.641Z,64.00
2018-01-29T18:11:27.930Z,64.40
2018-01-29T18:13:55.465Z,64.50
2018-01-29T18:16:23.020Z,65.90
2018-01-29T18:18:50.578Z,66.00
2018-01-29T18:21:18.149Z,66.00
2018-01-29T18:23:45.737Z,66.10
2018-01-29T18:26:13.289Z,66.20
2018-01-29T18:28:40.842Z,66.20
2018-01-29T18:31:09.162Z,66.90
2018-01-29T18:33:36.720Z,66.80
2018-01-29T18:36:04.296Z,67.20
2018-01-29T18:38:31.919Z,67.40
2018-01-29T18:40:59.461Z,67.70
2018-01-29T18:43:26.985Z,67.90
2018-01-29T18:45:54.548Z,67.90
2018-01-29T18:48:22.106Z,68.10
2018-01-29T18:50:49.657Z,68.10
2018-01-29T18:53:17.397Z,68.00
2018-01-29T18:55:45.133Z,67.60
2018-01-29T18:58:12.673Z,67.30
2018-01-29T19:00:41.026Z,67.30
2018-01-29T19:03:08.612Z,67.30
2018-01-29T19:05:36.160Z,67.10
2018-01-29T19:08:04.495Z,65.90
2018-01-29T19:10:32.066Z,66.00
2018-01-29T19:12:59.701Z,67.10
2018-01-29T19:15:27.235Z,67.10
2018-01-29T19:17:54.780Z,66.00
2018-01-29T19:20:22.314Z,67.20
2018-01-29T19:22:49.954Z,67.40
2018-01-29T19:25:17.486Z,67.60
2018-01-29T19:27:45.258Z,68.00
2018-01-29T19:30:13.563Z,67.40
2018-01-29T19:32:41.130Z,67.50
2018-01-29T19:35:09.434Z,67.50
2018-01-29T19:37:37.725Z,67.50
2018-01-29T19:40:05.344Z,67.50
2018-01-29T19:42:32.866Z,67.50
2018-01-29T19:45:00.478Z,67.50
2018-01-29T19:47:28.029Z,68.00
2018-01-29T19:49:55.572Z,68.40
2018-01-29T19:52:23.108Z,68.80
2018-01-29T19:54:50.768Z,68.80
2018-01-29T19:57:19.090Z,69.10
2018-01-29T19:59:46.637Z,69.00
2018-01-29T20:02:14.216Z,69.30
2018-01-29T20:04:41.797Z,69.50
2018-01-29T20:07:09.350Z,69.50
2018-01-29T20:09:36.888Z,69.50
2018-01-29T20:12:04.499Z,69.70
2018-01-29T20:14:32.796Z,70.10
2018-01-29T20:17:01.113Z,70.10
2018-01-29T20:19:28.668Z,70.10
2018-01-29T20:21:57.152Z,70.00
2018-01-29T20:24:24.792Z,70.00
2018-01-29T20:26:53.110Z,70.10
2018-01-29T20:29:21.389Z,70.10
2018-01-29T20:31:48.916Z,70.10
2018-01-29T20:34:16.468Z,70.10
2018-01-29T20:36:44.780Z,70.20
2018-01-29T20:39:12.335Z,70.20
2018-01-29T20:41:39.930Z,70.10
2018-01-29T20:44:07.471Z,70.10
2018-01-29T20:46:35.018Z,69.80
2018-01-29T20:49:02.550Z,69.90
2018-01-29T20:51:30.944Z,70.40
2018-01-29T20:53:58.501Z,69.70
2018-01-29T20:56:26.932Z,69.40
2018-01-29T20:58:54.501Z,69.40
2018-01-29T21:01:22.023Z,69.20
2018-01-29T21:03:49.545Z,69.10
2018-01-29T21:06:17.862Z,69.20
2018-01-29T21:08:46.214Z,69.30
2018-01-29T21:11:13.754Z,69.40
2018-01-29T21:13:42.069Z,68.80
2018-01-29T21:16:09.713Z,68.80
2018-01-29T21:18:37.242Z,68.70
2018-01-29T21:21:05.571Z,68.40
2018-01-29T21:23:33.204Z,68.40
2018-01-29T21:26:00.865Z,68.00
2018-01-29T21:28:28.382Z,68.40
2018-01-29T21:30:56.711Z,68.40
2018-01-29T21:33:25.062Z,68.40
2018-01-29T21:35:53.384Z,68.30
2018-01-29T21:38:21.686Z,68.10
2018-01-29T21:40:49.225Z,68.10
2018-01-29T21:43:16.789Z,68.00
2018-01-29T21:45:44.321Z,68.00
2018-01-29T21:48:12.702Z,68.00
2018-01-29T21:50:40.247Z,68.00
2018-01-29T21:53:07.773Z,67.90
2018-01-29T21:55:36.059Z,67.70
2018-01-29T21:58:03.667Z,67.80
2018-01-29T22:00:31.271Z,67.80
2018-01-29T22:03:00.204Z,68.60
2018-01-29T22:05:27.715Z,68.60
2018-01-29T22:07:56.018Z,68.80
2018-01-29T22:10:23.528Z,68.80
2018-01-29T22:12:51.823Z,68.80
2018-01-29T22:15:19.362Z,68.80
2018-01-29T22:17:47.672Z,68.50
2018-01-29T22:20:15.394Z,68.60
2018-01-29T22:22:42.918Z,68.70
2018-01-29T22:25:10.441Z,68.80
2018-01-29T22:27:37.988Z,68.80
2018-01-29T22:30:06.301Z,68.70
2018-01-29T22:32:33.928Z,68.80
2018-01-29T22:35:01.464Z,68.80
2018-01-29T22:37:29.768Z,68.50
2018-01-29T22:39:57.323Z,68.50
2018-01-29T22:42:25.149Z,68.50
2018-01-29T22:44:54.259Z,68.80
2018-01-29T22:47:22.968Z,68.70
2018-01-29T22:49:52.496Z,68.60
2018-01-29T22:52:20.291Z,68.80
2018-01-29T22:54:48.949Z,69.20
2018-01-29T22:57:17.783Z,69.20
2018-01-29T22:59:46.573Z,69.50
2018-01-29T23:02:14.446Z,69.60
2018-01-29T23:04:41.979Z,69.60
2018-01-29T23:07:09.530Z,69.70
2018-01-29T23:09:38.369Z,69.60
2018-01-29T23:12:05.910Z,69.70
2018-01-29T23:14:33.476Z,69.60
2018-01-29T23:17:01.756Z,69.00
2018-01-29T23:19:29.281Z,69.10
2018-01-29T23:21:56.813Z,68.70
2018-01-29T23:24:24.327Z,68.50
2018-01-29T23:26:52.637Z,68.00
2018-01-29T23:29:20.982Z,67.60
2018-01-29T23:31:48.527Z,67.50
2018-01-29T23:34:16.815Z,66.90
2018-01-29T23:36:44.418Z,66.90
2018-01-29T23:39:12.753Z,66.40
2018-01-29T23:41:40.284Z,66.30
2018-01-29T23:44:08.619Z,66.10
2018-01-29T23:46:36.899Z,65.80
2018-01-29T23:49:04.437Z,65.80
2018-01-29T23:51:32.035Z,65.80
2018-01-29T23:53:59.585Z,65.60
2018-01-29T23:56:27.268Z,65.60
2018-01-29T23:58:55.571Z,65.10
